메인 페이지
METAR-TAF:

METAR-TAF

공항 :

르이, 타이

위도: 17-27N, 경도: 101-44E, 고도: 253m

현재 날씨관측

예보는 17분 전, 01:00시(UTC)에 발표되었습니다.
7kt북서풍과 풍을 오가는
온도 28°C
습도 79%
기압 1005 hPa
시정 10km 이상
고도 3000ft 상공 구름 보통
고도 10000ft 상공 구름 많음

METAR: VTUL 220100Z 35007KT 310V010 9999 SCT030 BKN100 28/24 Q1005 NOSIG

시각: 08:17 (01:17 UTC)

예보

예보는 2 시간 17분 전, 23:00시(UTC)에 발표되었습니다.
예보 대상 시간: 22일 00시부터 22일 24시까지 (UTC)
10kt
시정: 9000m
고도 2500ft 상공 구름 많음
고도 7000ft 상공 구름 많음
일시적
22일 00시부터 22일 06시까지 (UTC)
남서10kt
시정: 6000m
고도 2500ft 상공 구름 많음
고도 7000ft 상공 구름 많음
약한비

TAF: VTUL 212300Z 2200/2224 26010KT 9000 BKN025 BKN070 TEMPO 2200/2206 22010KT 6000 -RA BKN025 BKN070

4,000개 이상의 공항 관측 자료 및 예보 (METAR 및 TAF 보고).

지도상에서 검색 가능한 기상관측소가 노란 점과 빨간 점으로 표시되어 있습니다.

기상관측소 명을 보려면 표시 위로 마우스를 이동하세요.

날씨 관측과 예보를 보려면 클릭하세요.

지도 변경 : 확대하려면 엑스 표시가 있는 녹색 버튼, 축소하려면 빼기 표시가 있는 녹색 버튼, 다음 페이지의 지도를 보려면 녹색 화살표를 클릭하세요.


METAR-TAF: